createdAt,value
2022-12-05T00:00:32.800Z,50.866779
2022-12-05T00:01:32.883Z,50.866749
2022-12-05T00:02:33.451Z,50.866806
2022-12-05T00:03:33.398Z,50.866825
2022-12-05T00:04:33.438Z,50.866821
2022-12-05T00:05:32.753Z,50.866840
2022-12-05T00:06:32.754Z,50.866882
2022-12-05T00:07:33.462Z,50.866898
2022-12-05T00:08:32.730Z,50.866879
2022-12-05T00:09:33.398Z,50.866871
2022-12-05T00:10:32.716Z,50.866844
2022-12-05T00:11:32.707Z,50.866817
2022-12-05T00:12:32.702Z,50.866825
2022-12-05T00:13:32.690Z,50.866894
2022-12-05T00:14:33.316Z,50.866924
2022-12-05T00:15:32.684Z,50.866871
2022-12-05T00:16:32.763Z,50.866844
2022-12-05T00:17:33.378Z,50.866863
2022-12-05T00:18:32.643Z,50.866905
2022-12-05T00:19:32.647Z,50.866924
2022-12-05T00:20:32.637Z,50.866913
2022-12-05T00:21:32.621Z,50.866920
2022-12-05T00:22:32.628Z,50.866917
2022-12-05T00:23:32.613Z,50.866898
2022-12-05T00:24:32.611Z,50.866859
2022-12-05T00:25:32.597Z,50.866928
2022-12-05T00:26:32.588Z,50.866882
2022-12-05T00:30:15.727Z,50.866802
2022-12-05T00:31:15.764Z,50.866909
2022-12-05T00:32:15.788Z,50.866856
2022-12-05T00:33:15.684Z,50.866905
2022-12-05T00:34:15.677Z,50.866909
2022-12-05T00:35:17.586Z,50.866852
2022-12-05T00:36:15.670Z,50.866844
2022-12-05T00:37:15.653Z,50.866848
2022-12-05T00:38:15.652Z,50.866863
2022-12-05T00:39:17.485Z,50.866879
2022-12-05T00:40:15.640Z,50.866859
2022-12-05T00:41:17.487Z,50.866837
2022-12-05T00:42:15.612Z,50.866859
2022-12-05T00:43:15.603Z,50.866894
2022-12-05T00:44:15.602Z,50.866894
2022-12-05T00:45:15.589Z,50.866871
2022-12-05T00:46:15.676Z,50.866833
2022-12-05T00:47:15.780Z,50.866814
2022-12-05T00:48:15.564Z,50.866791
2022-12-05T00:49:16.069Z,50.866829
2022-12-05T00:50:15.547Z,50.866951
2022-12-05T00:51:15.542Z,50.866913
2022-12-05T00:52:15.529Z,50.866920
2022-12-05T00:53:15.522Z,50.866776
2022-12-05T00:54:15.663Z,50.866749
2022-12-05T00:55:16.508Z,50.866589
2022-12-05T00:56:16.498Z,50.866493
2022-12-05T00:57:15.496Z,50.866776
2022-12-05T00:58:15.485Z,50.866943
2022-12-05T00:59:15.483Z,50.866989
2022-12-05T01:00:15.471Z,50.866970
2022-12-05T01:01:15.561Z,50.867023
2022-12-05T01:02:16.242Z,50.866928
2022-12-05T01:03:15.486Z,50.866867
2022-12-05T01:04:15.439Z,50.866699
2022-12-05T01:05:15.432Z,50.866432
2022-12-05T01:06:15.438Z,50.866333
2022-12-05T01:07:15.410Z,50.866325
2022-12-05T01:08:15.458Z,50.866360
2022-12-05T01:09:15.419Z,50.866291
2022-12-05T01:10:15.398Z,50.866165
2022-12-05T01:11:15.385Z,50.866089
2022-12-05T01:12:16.451Z,50.866013
2022-12-05T01:13:15.368Z,50.866161
2022-12-05T01:14:15.395Z,50.866333
2022-12-05T01:15:15.350Z,50.866703
2022-12-05T01:16:17.208Z,50.866653
2022-12-05T01:17:15.330Z,50.866825
2022-12-05T01:18:15.331Z,50.866760
2022-12-05T01:19:15.320Z,50.866734
2022-12-05T01:20:15.930Z,50.866703
2022-12-05T01:21:15.991Z,50.866703
2022-12-05T01:22:15.292Z,50.866676
2022-12-05T01:23:15.279Z,50.866737
2022-12-05T01:24:15.271Z,50.866699
2022-12-05T01:25:15.275Z,50.866734
2022-12-05T01:26:15.267Z,50.866695
2022-12-05T01:27:15.255Z,50.866650
2022-12-05T01:28:15.245Z,50.866673
2022-12-05T01:29:15.326Z,50.866718
2022-12-05T01:30:17.023Z,50.866699
2022-12-05T01:31:15.258Z,50.866657
2022-12-05T01:32:15.384Z,50.866657
2022-12-05T01:33:15.203Z,50.866695
2022-12-05T01:34:15.207Z,50.866642
2022-12-05T01:35:15.191Z,50.866638
2022-12-05T01:36:15.180Z,50.866680
2022-12-05T01:37:15.588Z,50.866665
2022-12-05T01:38:15.166Z,50.866726
2022-12-05T01:39:15.160Z,50.866749
2022-12-05T01:40:15.158Z,50.866611
2022-12-05T01:41:15.151Z,50.866665
2022-12-05T01:42:15.141Z,50.866676
2022-12-05T01:43:15.126Z,50.866718
2022-12-05T01:44:15.126Z,50.866684
2022-12-05T01:45:16.013Z,50.866623
2022-12-05T01:46:15.166Z,50.866703
2022-12-05T01:47:15.090Z,50.866699
2022-12-05T01:48:15.091Z,50.866680
2022-12-05T01:49:15.102Z,50.866589
2022-12-05T01:50:15.066Z,50.866646
2022-12-05T01:51:15.063Z,50.866642
2022-12-05T01:52:15.048Z,50.866661
2022-12-05T01:53:15.041Z,50.866692
2022-12-05T01:54:15.418Z,50.866745
2022-12-05T01:55:15.328Z,50.866673
2022-12-05T01:56:15.023Z,50.866699
2022-12-05T01:57:15.011Z,50.866688
2022-12-05T01:58:15.016Z,50.866695
2022-12-05T01:59:15.011Z,50.866646
2022-12-05T02:00:14.987Z,50.866608
2022-12-05T02:01:15.039Z,50.866615
2022-12-05T02:02:15.531Z,50.866650
2022-12-05T02:03:14.962Z,50.866631
2022-12-05T02:04:14.956Z,50.866623
2022-12-05T02:05:14.948Z,50.866661
2022-12-05T02:06:14.972Z,50.866650
2022-12-05T02:07:15.520Z,50.866657
2022-12-05T02:08:14.978Z,50.866570
2022-12-05T02:09:14.907Z,50.866619
2022-12-05T02:10:14.912Z,50.866665
2022-12-05T02:11:14.891Z,50.866638
2022-12-05T02:12:14.887Z,50.866608
2022-12-05T02:13:14.890Z,50.866611
2022-12-05T02:14:14.875Z,50.866642
2022-12-05T02:15:14.865Z,50.866634
2022-12-05T02:16:14.932Z,50.866699
2022-12-05T02:17:14.927Z,50.866615
2022-12-05T02:18:14.829Z,50.866634
2022-12-05T02:19:14.822Z,50.866570
2022-12-05T02:20:14.827Z,50.866604
2022-12-05T02:21:14.804Z,50.866627
2022-12-05T02:22:14.809Z,50.866619
2022-12-05T02:23:14.790Z,50.866692
2022-12-05T02:24:14.795Z,50.866688
2022-12-05T02:25:14.777Z,50.866703
2022-12-05T02:26:14.780Z,50.866722
2022-12-05T02:27:14.760Z,50.866695
2022-12-05T02:28:15.506Z,50.866688
2022-12-05T02:29:14.746Z,50.866688
2022-12-05T02:30:14.744Z,50.866726
2022-12-05T02:31:14.775Z,50.866703
2022-12-05T02:32:14.725Z,50.866726
2022-12-05T02:33:14.715Z,50.866795
2022-12-05T02:34:14.708Z,50.866810
2022-12-05T02:35:14.695Z,50.866798
2022-12-05T02:36:14.697Z,50.866692
2022-12-05T02:37:14.686Z,50.866692
2022-12-05T02:38:14.674Z,50.866650
2022-12-05T02:39:14.672Z,50.866615
2022-12-05T02:40:14.660Z,50.866505
2022-12-05T02:41:14.650Z,50.866158
2022-12-05T02:42:14.640Z,50.865997
2022-12-05T02:43:15.522Z,50.866013
2022-12-05T02:44:14.630Z,50.866192
2022-12-05T02:45:14.619Z,50.866402
2022-12-05T02:46:15.583Z,50.866398
2022-12-05T02:47:14.614Z,50.866371
2022-12-05T02:48:14.597Z,50.866383
2022-12-05T02:49:14.587Z,50.866245
2022-12-05T02:50:14.583Z,50.866238
2022-12-05T02:51:14.572Z,50.866463
2022-12-05T02:52:14.618Z,50.866531
2022-12-05T02:53:14.564Z,50.866489
2022-12-05T02:54:14.543Z,50.866474
2022-12-05T02:55:15.506Z,50.866577
2022-12-05T02:56:14.534Z,50.866611
2022-12-05T02:57:14.639Z,50.866718
2022-12-05T02:58:14.528Z,50.866730
2022-12-05T02:59:19.843Z,50.866661
2022-12-05T03:00:16.498Z,50.866634
2022-12-05T03:01:14.571Z,50.866661
2022-12-05T03:02:14.491Z,50.866707
2022-12-05T03:03:14.474Z,50.866734
2022-12-05T03:04:14.510Z,50.866703
2022-12-05T03:05:15.480Z,50.866676
2022-12-05T03:06:14.454Z,50.866745
2022-12-05T03:07:14.436Z,50.866749
2022-12-05T03:08:14.499Z,50.866745
2022-12-05T03:09:14.421Z,50.866692
2022-12-05T03:10:14.423Z,50.866703
2022-12-05T03:11:14.425Z,50.866718
2022-12-05T03:12:14.401Z,50.866653
2022-12-05T03:13:17.018Z,50.866688
2022-12-05T03:14:14.381Z,50.866760
2022-12-05T03:15:14.385Z,50.866756
2022-12-05T03:16:15.425Z,50.866703
2022-12-05T03:17:14.365Z,50.866680
2022-12-05T03:18:14.361Z,50.866673
2022-12-05T03:19:14.353Z,50.866699
2022-12-05T03:20:14.360Z,50.866703
2022-12-05T03:21:14.342Z,50.866722
2022-12-05T03:22:14.316Z,50.866714
2022-12-05T03:23:14.310Z,50.866676
2022-12-05T03:24:14.312Z,50.866642
2022-12-05T03:25:14.317Z,50.866589
2022-12-05T03:26:14.291Z,50.866619
2022-12-05T03:27:14.280Z,50.866734
2022-12-05T03:28:14.272Z,50.866764
2022-12-05T03:29:14.263Z,50.866760
2022-12-05T03:30:14.256Z,50.866825
2022-12-05T03:31:14.356Z,50.866825
2022-12-05T03:32:14.264Z,50.866821
2022-12-05T03:33:14.231Z,50.866871
2022-12-05T03:34:14.233Z,50.866844
2022-12-05T03:35:14.227Z,50.866802
2022-12-05T03:36:14.213Z,50.866879
2022-12-05T03:37:14.235Z,50.866848
2022-12-05T03:38:14.191Z,50.866985
2022-12-05T03:39:16.010Z,50.866909
2022-12-05T03:40:14.223Z,50.867180
2022-12-05T03:41:14.175Z,50.867523
2022-12-05T03:42:15.013Z,50.867023
2022-12-05T03:43:14.152Z,50.866772
2022-12-05T03:44:15.091Z,50.866642
2022-12-05T03:45:14.143Z,50.866486
2022-12-05T03:46:14.206Z,50.866646
2022-12-05T03:47:14.165Z,50.866726
2022-12-05T03:48:14.132Z,50.866756
2022-12-05T03:49:14.105Z,50.866692
2022-12-05T03:50:14.108Z,50.866642
2022-12-05T03:51:16.013Z,50.866688
2022-12-05T03:52:14.086Z,50.866673
2022-12-05T03:53:21.396Z,50.866882
2022-12-05T03:54:16.063Z,50.866806
2022-12-05T03:55:14.062Z,50.866692
2022-12-05T03:56:14.050Z,50.866699
2022-12-05T03:57:14.044Z,50.866718
2022-12-05T03:58:14.038Z,50.866756
2022-12-05T03:59:14.023Z,50.866753
2022-12-05T04:00:14.028Z,50.866886
2022-12-05T04:01:14.032Z,50.866947
2022-12-05T04:02:14.006Z,50.866844
2022-12-05T04:03:14.066Z,50.866810
2022-12-05T04:04:13.985Z,50.866840
2022-12-05T04:05:13.978Z,50.866673
2022-12-05T04:06:13.971Z,50.866634
2022-12-05T04:07:13.958Z,50.866638
2022-12-05T04:08:14.023Z,50.866680
2022-12-05T04:09:17.288Z,50.866676
2022-12-05T04:10:14.939Z,50.866657
2022-12-05T04:11:13.923Z,50.866722
2022-12-05T04:12:14.532Z,50.866730
2022-12-05T04:13:13.910Z,50.866776
2022-12-05T04:14:13.919Z,50.866806
2022-12-05T04:15:13.909Z,50.866737
2022-12-05T04:16:13.943Z,50.866718
2022-12-05T04:17:13.874Z,50.866646
2022-12-05T04:18:13.868Z,50.866676
2022-12-05T04:19:14.516Z,50.866718
2022-12-05T04:20:13.898Z,50.866840
2022-12-05T04:21:13.842Z,50.866745
2022-12-05T04:22:13.848Z,50.866764
2022-12-05T04:42:21.676Z,50.866627
2022-12-05T04:43:21.670Z,50.866543
2022-12-05T04:44:22.643Z,50.866230
2022-12-05T04:45:21.664Z,50.866539
2022-12-05T04:46:22.700Z,50.866592
2022-12-05T04:47:21.649Z,50.866898
2022-12-05T04:48:21.626Z,50.866615
2022-12-05T04:49:22.648Z,50.866562
2022-12-05T04:50:21.629Z,50.866272
2022-12-05T04:51:21.611Z,50.866039
2022-12-05T04:52:21.604Z,50.866474
2022-12-05T04:53:21.602Z,50.866734
2022-12-05T04:54:21.586Z,50.866825
2022-12-05T04:55:21.633Z,50.866825
2022-12-05T04:56:21.604Z,50.866737
2022-12-05T04:57:22.562Z,50.866714
2022-12-05T04:58:21.563Z,50.866428
2022-12-05T04:59:21.546Z,50.866451
2022-12-05T05:00:21.560Z,50.866451
2022-12-05T05:01:21.583Z,50.866619
2022-12-05T05:02:21.595Z,50.866535
2022-12-05T05:03:21.570Z,50.866730
2022-12-05T05:04:21.505Z,50.866707
2022-12-05T05:05:23.132Z,50.866604
2022-12-05T05:06:21.490Z,50.866848
2022-12-05T05:07:22.128Z,50.866894
2022-12-05T05:08:21.570Z,50.866985
2022-12-05T05:09:21.471Z,50.866627
2022-12-05T05:10:22.456Z,50.866493
2022-12-05T05:11:21.449Z,50.866528
2022-12-05T05:12:21.445Z,50.866528
2022-12-05T05:13:21.461Z,50.866528
2022-12-05T05:14:21.458Z,50.866528
2022-12-05T05:15:22.052Z,50.866543
2022-12-05T05:16:21.478Z,50.866570
2022-12-05T05:17:21.417Z,50.866875
2022-12-05T05:18:21.399Z,50.866844
2022-12-05T05:19:24.054Z,50.866711
2022-12-05T05:20:22.047Z,50.866589
2022-12-05T05:21:21.368Z,50.866508
2022-12-05T05:22:21.365Z,50.866508
2022-12-05T05:23:21.373Z,50.866508
2022-12-05T05:24:21.350Z,50.866508
2022-12-05T05:25:21.359Z,50.866508
2022-12-05T05:26:21.345Z,50.866508
2022-12-05T05:27:21.337Z,50.866688
2022-12-05T05:28:22.050Z,50.866714
2022-12-05T05:29:21.307Z,50.866714
2022-12-05T05:30:25.145Z,50.866726
2022-12-05T05:31:22.558Z,50.866703
2022-12-05T05:32:54.080Z,50.866707
2022-12-05T05:33:21.312Z,50.866688
2022-12-05T05:34:21.271Z,50.866711
2022-12-05T05:35:21.267Z,50.866798
2022-12-05T05:36:21.251Z,50.866730
2022-12-05T05:37:21.246Z,50.866608
2022-12-05T05:38:21.242Z,50.866596
2022-12-05T05:39:21.226Z,50.866604
2022-12-05T05:40:21.225Z,50.866600
2022-12-05T05:41:21.221Z,50.866665
2022-12-05T05:42:23.154Z,50.866680
2022-12-05T05:43:21.221Z,50.866608
2022-12-05T05:44:22.200Z,50.866688
2022-12-05T05:45:21.187Z,50.866581
2022-12-05T05:46:21.211Z,50.866581
2022-12-05T05:47:21.177Z,50.866585
2022-12-05T05:48:22.078Z,50.866638
2022-12-05T05:49:21.160Z,50.866627
2022-12-05T05:50:22.124Z,50.866516
2022-12-05T05:51:23.076Z,50.866608
2022-12-05T05:52:24.652Z,50.866547
2022-12-05T05:53:21.149Z,50.866669
2022-12-05T05:54:22.653Z,50.866608
2022-12-05T05:55:21.099Z,50.866756
2022-12-05T05:56:22.053Z,50.866718
2022-12-05T05:57:22.100Z,50.866714
2022-12-05T05:58:21.656Z,50.866581
2022-12-05T05:59:21.117Z,50.866539
2022-12-05T06:00:21.091Z,50.866554
2022-12-05T06:01:21.115Z,50.866497
2022-12-05T06:02:21.237Z,50.866386
2022-12-05T06:03:21.204Z,50.866592
2022-12-05T06:04:21.093Z,50.866795
2022-12-05T06:05:21.023Z,50.867058
2022-12-05T06:06:21.063Z,50.867168
2022-12-05T06:07:21.014Z,50.866726
2022-12-05T06:08:21.134Z,50.866844
2022-12-05T06:09:20.994Z,50.866779
2022-12-05T06:10:20.990Z,50.866810
2022-12-05T06:11:25.853Z,50.866825
2022-12-05T06:12:22.977Z,50.866718
2022-12-05T06:13:20.974Z,50.866768
2022-12-05T06:14:20.953Z,50.866711
2022-12-05T06:15:20.945Z,50.866844
2022-12-05T06:16:21.038Z,50.866882
2022-12-05T06:17:20.953Z,50.866840
2022-12-05T06:18:20.932Z,50.866722
2022-12-05T06:19:20.919Z,50.866596
2022-12-05T06:20:22.583Z,50.866543
2022-12-05T06:21:20.903Z,50.866535
2022-12-05T06:22:21.676Z,50.866665
2022-12-05T06:23:21.588Z,50.866848
2022-12-05T06:24:20.878Z,50.866615
2022-12-05T06:25:20.863Z,50.866879
2022-12-05T06:26:24.616Z,50.866760
2022-12-05T06:27:20.853Z,50.866798
2022-12-05T06:28:22.665Z,50.866776
2022-12-05T06:29:25.336Z,50.866753
2022-12-05T06:30:25.775Z,50.866756
2022-12-05T06:31:21.706Z,50.866882
2022-12-05T06:32:21.587Z,50.866714
2022-12-05T06:33:20.806Z,50.866653
2022-12-05T06:34:20.798Z,50.866756
2022-12-05T06:35:22.655Z,50.866745
2022-12-05T06:36:20.784Z,50.866722
2022-12-05T06:37:21.673Z,50.866760
2022-12-05T06:38:22.679Z,50.866840
2022-12-05T06:39:22.677Z,50.866753
2022-12-05T06:40:20.777Z,50.866932
2022-12-05T06:41:20.752Z,50.866989
2022-12-05T06:42:20.751Z,50.867016
2022-12-05T06:43:20.735Z,50.867054
2022-12-05T06:44:21.667Z,50.866901
2022-12-05T06:45:20.724Z,50.866844
2022-12-05T06:46:20.723Z,50.867085
2022-12-05T06:47:20.704Z,50.867107
2022-12-05T06:48:20.686Z,50.866867
2022-12-05T06:49:23.148Z,50.866688
2022-12-05T06:50:20.673Z,50.866699
2022-12-05T06:51:20.668Z,50.866741
2022-12-05T06:52:20.689Z,50.866722
2022-12-05T06:53:20.645Z,50.866600
2022-12-05T06:54:20.644Z,50.866772
2022-12-05T06:55:20.637Z,50.866722
2022-12-05T06:56:20.632Z,50.866741
2022-12-05T06:57:20.624Z,50.866745
2022-12-05T06:58:20.616Z,50.866718
2022-12-05T06:59:20.599Z,50.866676
2022-12-05T07:00:20.593Z,50.866772
2022-12-05T07:01:20.678Z,50.866722
2022-12-05T07:02:20.627Z,50.866737
2022-12-05T07:03:20.567Z,50.866665
2022-12-05T07:04:20.563Z,50.866844
2022-12-05T07:05:20.575Z,50.866829
2022-12-05T07:06:20.547Z,50.866829
2022-12-05T07:07:20.650Z,50.866764
2022-12-05T07:08:20.606Z,50.866741
2022-12-05T07:09:20.561Z,50.866798
2022-12-05T07:10:20.519Z,50.866814
2022-12-05T07:11:20.520Z,50.866852
2022-12-05T07:12:20.518Z,50.866787
2022-12-05T07:13:20.519Z,50.866756
2022-12-05T07:14:50.462Z,50.866760
2022-12-05T07:15:22.487Z,50.866772
2022-12-05T07:16:20.515Z,50.866779
2022-12-05T07:17:20.476Z,50.866783
2022-12-05T07:18:20.456Z,50.866932
2022-12-05T07:19:20.441Z,50.866962
2022-12-05T07:20:20.444Z,50.866692
2022-12-05T07:21:20.420Z,50.866604
2022-12-05T07:22:21.174Z,50.866642
2022-12-05T07:23:20.418Z,50.866600
2022-12-05T07:24:20.404Z,50.866272
2022-12-05T07:25:20.410Z,50.866249
2022-12-05T07:26:20.393Z,50.866280
2022-12-05T07:27:26.654Z,50.866581
2022-12-05T07:28:22.374Z,50.866867
2022-12-05T07:29:21.098Z,50.866886
2022-12-05T07:30:20.363Z,50.866856
2022-12-05T07:31:20.409Z,50.866890
2022-12-05T07:32:21.163Z,50.866833
2022-12-05T07:33:20.344Z,50.866768
2022-12-05T07:34:20.326Z,50.866783
2022-12-05T07:35:20.316Z,50.866806
2022-12-05T07:36:20.321Z,50.866817
2022-12-05T07:37:20.320Z,50.866852
2022-12-05T07:38:21.099Z,50.866871
2022-12-05T07:39:20.289Z,50.866859
2022-12-05T07:40:20.299Z,50.867054
2022-12-05T07:41:20.278Z,50.866898
2022-12-05T07:42:20.262Z,50.866844
2022-12-05T07:43:20.252Z,50.866966
2022-12-05T07:44:20.248Z,50.866890
2022-12-05T07:45:20.235Z,50.866802
2022-12-05T07:46:20.317Z,50.866749
2022-12-05T07:47:20.269Z,50.866787
2022-12-05T07:48:20.210Z,50.866741
2022-12-05T07:49:20.218Z,50.866753
2022-12-05T07:50:20.209Z,50.866760
2022-12-05T07:51:20.185Z,50.866806
2022-12-05T07:52:21.106Z,50.866882
2022-12-05T07:53:20.177Z,50.866875
2022-12-05T07:54:20.175Z,50.866817
2022-12-05T07:55:20.159Z,50.866817
2022-12-05T07:56:20.151Z,50.866844
2022-12-05T07:57:20.163Z,50.866833
2022-12-05T07:58:20.149Z,50.866810
2022-12-05T07:59:20.137Z,50.866787
2022-12-05T08:00:20.122Z,50.866791
2022-12-05T08:01:20.167Z,50.866817
2022-12-05T08:02:20.192Z,50.866821
2022-12-05T08:03:20.100Z,50.866837
2022-12-05T08:04:20.082Z,50.866825
2022-12-05T08:05:20.101Z,50.866814
2022-12-05T08:06:20.068Z,50.866833
2022-12-05T08:07:20.076Z,50.866814
2022-12-05T08:08:20.127Z,50.866795
2022-12-05T08:09:20.059Z,50.866810
2022-12-05T08:10:20.055Z,50.866806
2022-12-05T08:11:20.043Z,50.866776
2022-12-05T08:12:21.625Z,50.866844
2022-12-05T08:13:20.041Z,50.866783
2022-12-05T08:14:20.026Z,50.866711
2022-12-05T08:15:20.606Z,50.866840
2022-12-05T08:16:20.014Z,50.866871
2022-12-05T08:17:19.979Z,50.866810
2022-12-05T08:18:24.390Z,50.866821
2022-12-05T08:19:21.960Z,50.866859
2022-12-05T08:20:20.006Z,50.866764
2022-12-05T08:21:53.160Z,50.866776
2022-12-05T08:22:19.938Z,50.866695
2022-12-05T08:23:19.936Z,50.866798
2022-12-05T08:24:19.923Z,50.866764
2022-12-05T08:25:19.912Z,50.866753
2022-12-05T08:26:19.928Z,50.866791
2022-12-05T08:27:19.902Z,50.866764
2022-12-05T08:28:19.909Z,50.866821
2022-12-05T08:29:19.895Z,50.866779
2022-12-05T08:30:20.716Z,50.866753
2022-12-05T08:31:19.954Z,50.866817
2022-12-05T08:32:19.862Z,50.866772
2022-12-05T08:33:19.849Z,50.866718
2022-12-05T08:34:19.849Z,50.866718
2022-12-05T08:35:19.833Z,50.866707
2022-12-05T08:36:19.825Z,50.866688
2022-12-05T08:37:19.879Z,50.866657
2022-12-05T08:38:19.811Z,50.866753
2022-12-05T08:39:20.646Z,50.866756
2022-12-05T08:40:19.801Z,50.866814
2022-12-05T08:41:19.789Z,50.866768
2022-12-05T08:42:19.794Z,50.866817
2022-12-05T08:43:19.778Z,50.866768
2022-12-05T08:44:19.763Z,50.866718
2022-12-05T08:45:19.781Z,50.866669
2022-12-05T08:46:19.787Z,50.866627
2022-12-05T08:47:19.768Z,50.866508
2022-12-05T08:48:22.388Z,50.866417
2022-12-05T08:49:28.239Z,50.866264
2022-12-05T08:50:19.714Z,50.866428
2022-12-05T08:51:19.722Z,50.866302
2022-12-05T08:52:19.708Z,50.866722
2022-12-05T08:53:20.251Z,50.866814
2022-12-05T08:54:19.696Z,50.866859
2022-12-05T08:55:19.678Z,50.866806
2022-12-05T08:56:26.574Z,50.866829
2022-12-05T08:57:21.669Z,50.866764
2022-12-05T08:58:19.658Z,50.866760
2022-12-05T08:59:19.658Z,50.866722
2022-12-05T09:00:19.753Z,50.866726
2022-12-05T09:01:19.702Z,50.866829
2022-12-05T09:02:19.679Z,50.866928
2022-12-05T09:03:19.617Z,50.867023
2022-12-05T09:04:19.615Z,50.866909
2022-12-05T09:05:28.048Z,50.866890
2022-12-05T09:06:21.602Z,50.866924
2022-12-05T09:07:19.590Z,50.866947
2022-12-05T09:08:19.602Z,50.867214
2022-12-05T09:09:19.590Z,50.867035
2022-12-05T09:10:19.565Z,50.867050
2022-12-05T09:11:19.591Z,50.867058
2022-12-05T09:12:19.554Z,50.867035
2022-12-05T09:13:19.552Z,50.866982
2022-12-05T09:14:19.540Z,50.866932
2022-12-05T09:15:19.541Z,50.867157
2022-12-05T09:16:19.564Z,50.866943
2022-12-05T09:17:19.548Z,50.866634
2022-12-05T09:18:19.508Z,50.866627
2022-12-05T09:19:19.504Z,50.866783
2022-12-05T09:20:19.489Z,50.866909
2022-12-05T09:21:19.492Z,50.866909
2022-12-05T09:22:19.769Z,50.866787
2022-12-05T09:23:19.476Z,50.866856
2022-12-05T09:24:19.482Z,50.866859
2022-12-05T09:25:19.451Z,50.866810
2022-12-05T09:26:19.457Z,50.866699
2022-12-05T09:27:19.437Z,50.866722
2022-12-05T09:28:19.432Z,50.866737
2022-12-05T09:29:19.418Z,50.866676
2022-12-05T09:30:19.411Z,50.866653
2022-12-05T09:31:19.468Z,50.866795
2022-12-05T09:32:19.411Z,50.866779
2022-12-05T09:33:19.401Z,50.866772
2022-12-05T09:34:20.369Z,50.866776
2022-12-05T09:35:20.212Z,50.866760
2022-12-05T09:36:19.374Z,50.866833
2022-12-05T09:37:38.267Z,50.866814
2022-12-05T09:38:21.363Z,50.866821
2022-12-05T09:39:20.150Z,50.866859
2022-12-05T09:40:19.336Z,50.866787
2022-12-05T09:41:19.336Z,50.866764
2022-12-05T09:42:19.327Z,50.866776
2022-12-05T09:43:19.317Z,50.866791
2022-12-05T09:44:19.311Z,50.866783
2022-12-05T09:45:19.297Z,50.866806
2022-12-05T09:46:19.369Z,50.866802
2022-12-05T09:47:19.284Z,50.866756
2022-12-05T09:48:19.279Z,50.866776
2022-12-05T09:49:19.274Z,50.866764
2022-12-05T09:50:19.263Z,50.866806
2022-12-05T09:51:21.164Z,50.866882
2022-12-05T09:52:19.246Z,50.866810
2022-12-05T09:53:20.226Z,50.866768
2022-12-05T09:54:19.223Z,50.866802
2022-12-05T09:55:20.275Z,50.866730
2022-12-05T09:56:20.730Z,50.866795
2022-12-05T09:57:19.208Z,50.866783
2022-12-05T09:58:19.202Z,50.866768
2022-12-05T09:59:19.182Z,50.866787
2022-12-05T10:00:20.155Z,50.866768
2022-12-05T10:01:19.207Z,50.866760
2022-12-05T10:02:19.166Z,50.866753
2022-12-05T10:03:19.163Z,50.866734
2022-12-05T10:04:19.208Z,50.866787
2022-12-05T10:05:19.178Z,50.866772
2022-12-05T10:06:19.131Z,50.866814
2022-12-05T10:07:19.132Z,50.866837
2022-12-05T10:08:19.197Z,50.866810
2022-12-05T10:09:19.108Z,50.866768
2022-12-05T10:10:20.498Z,50.866734
2022-12-05T10:11:20.098Z,50.866760
2022-12-05T10:12:19.093Z,50.866802
2022-12-05T10:13:19.089Z,50.866734
2022-12-05T10:14:19.084Z,50.866650
2022-12-05T10:15:19.068Z,50.866673
2022-12-05T10:16:19.117Z,50.866806
2022-12-05T10:17:19.057Z,50.866817
2022-12-05T10:18:21.652Z,50.866802
2022-12-05T10:19:19.042Z,50.866699
2022-12-05T10:20:19.029Z,50.866692
2022-12-05T10:21:19.011Z,50.866711
2022-12-05T10:22:20.874Z,50.866779
2022-12-05T10:23:48.857Z,50.866825
2022-12-05T10:24:20.996Z,50.866814
2022-12-05T10:25:19.013Z,50.866917
2022-12-05T10:26:19.736Z,50.866787
2022-12-05T10:27:19.654Z,50.866810
2022-12-05T10:28:20.736Z,50.866875
2022-12-05T10:29:19.655Z,50.866959
2022-12-05T10:30:18.938Z,50.866783
2022-12-05T10:31:19.050Z,50.866802
2022-12-05T10:32:18.926Z,50.866814
2022-12-05T10:33:18.918Z,50.866798
2022-12-05T10:34:18.917Z,50.866776
2022-12-05T10:35:19.901Z,50.866779
2022-12-05T10:36:18.891Z,50.866787
2022-12-05T10:37:18.893Z,50.866798
2022-12-05T10:38:18.879Z,50.866745
2022-12-05T10:39:18.867Z,50.866676
2022-12-05T10:40:18.867Z,50.866707
2022-12-05T10:41:18.854Z,50.866772
2022-12-05T10:42:18.852Z,50.866951
2022-12-05T10:43:18.841Z,50.866901
2022-12-05T10:44:18.835Z,50.866898
2022-12-05T10:45:18.825Z,50.866905
2022-12-05T10:46:18.862Z,50.866955
2022-12-05T10:47:21.770Z,50.866814
2022-12-05T10:48:18.805Z,50.866821
2022-12-05T10:49:18.784Z,50.866730
2022-12-05T10:50:21.677Z,50.866795
2022-12-05T10:51:18.789Z,50.866779
2022-12-05T10:52:18.798Z,50.866890
2022-12-05T10:53:18.781Z,50.866951
2022-12-05T10:54:18.758Z,50.866875
2022-12-05T10:55:18.748Z,50.866848
2022-12-05T10:56:34.049Z,50.866802
2022-12-05T10:57:20.746Z,50.866753
2022-12-05T10:58:18.722Z,50.866768
2022-12-05T10:59:18.732Z,50.866806
2022-12-05T11:00:18.712Z,50.866787
2022-12-05T11:01:18.795Z,50.866798
2022-12-05T11:02:18.776Z,50.866764
2022-12-05T11:03:19.239Z,50.866756
2022-12-05T11:04:18.676Z,50.866711
2022-12-05T11:05:18.703Z,50.866756
2022-12-05T11:06:19.235Z,50.866890
2022-12-05T11:07:18.670Z,50.866875
2022-12-05T11:08:19.583Z,50.866879
2022-12-05T11:09:19.634Z,50.866779
2022-12-05T11:10:23.574Z,50.866753
2022-12-05T11:11:20.619Z,50.866791
2022-12-05T11:12:18.620Z,50.866741
2022-12-05T11:13:18.615Z,50.866699
2022-12-05T11:14:18.594Z,50.866783
2022-12-05T11:15:18.600Z,50.866791
2022-12-05T11:16:19.818Z,50.866734
2022-12-05T11:17:18.570Z,50.866833
2022-12-05T11:18:19.169Z,50.866795
2022-12-05T11:19:18.558Z,50.866749
2022-12-05T11:20:19.281Z,50.866852
2022-12-05T11:21:19.169Z,50.866989
2022-12-05T11:22:18.561Z,50.867134
2022-12-05T11:23:18.526Z,50.867165
2022-12-05T11:24:19.248Z,50.866985
2022-12-05T11:25:18.518Z,50.866947
2022-12-05T11:26:18.519Z,50.866776
2022-12-05T11:27:19.169Z,50.867046
2022-12-05T11:28:18.484Z,50.867020
2022-12-05T11:29:18.484Z,50.867294
2022-12-05T11:30:18.476Z,50.867489
2022-12-05T11:31:18.523Z,50.867241
2022-12-05T11:32:19.464Z,50.867085
2022-12-05T11:33:18.451Z,50.867203
2022-12-05T11:34:21.165Z,50.867378
2022-12-05T11:35:18.483Z,50.867260
2022-12-05T11:36:19.129Z,50.866856
2022-12-05T11:37:18.423Z,50.866871
2022-12-05T11:38:18.407Z,50.866760
2022-12-05T11:39:18.401Z,50.867222
2022-12-05T11:40:28.066Z,50.866867
2022-12-05T11:41:23.159Z,50.866974
2022-12-05T11:42:20.277Z,50.867393
2022-12-05T11:43:18.359Z,50.867546
2022-12-05T11:44:19.249Z,50.867363
2022-12-05T11:45:18.354Z,50.867317
2022-12-05T11:46:22.234Z,50.866959